Time;durP1;ratioP1;P1;durP2;ratioP2;P2;SDS_P1;SDS_P2;PMS_P1;PMS_P2;Temp;Humidity;BMP_temperature;BMP_pressure;BME280_temperature;BME280_humidity;BME280_pressure;Samples;Min_cycle;Max_cycle;Signal;HPM_P1;HPM_P2
2022/03/10 00:00:28;;;;;;;9.80;8.23;;;7.60;93.40;;;;;;5054613;28;20218;-48
2022/03/10 00:02:58;;;;;;;9.90;8.05;;;7.60;93.30;;;;;;5069887;28;20212;-48
2022/03/10 00:05:26;;;;;;;11.40;8.27;;;7.60;93.20;;;;;;5066395;28;20273;-49
2022/03/10 00:07:54;;;;;;;11.73;8.35;;;7.60;93.30;;;;;;5067134;28;20750;-49
2022/03/10 00:10:22;;;;;;;12.57;8.77;;;7.60;93.30;;;;;;5069484;28;20223;-47
2022/03/10 00:12:52;;;;;;;11.48;8.00;;;7.60;93.10;;;;;;5069904;28;20921;-49
2022/03/10 00:15:22;;;;;;;10.82;8.30;;;7.60;93.30;;;;;;5053962;28;20262;-49
2022/03/10 00:17:50;;;;;;;14.43;8.93;;;7.60;93.10;;;;;;5069038;28;20288;-47
2022/03/10 00:20:20;;;;;;;10.30;7.47;;;7.60;93.10;;;;;;5067916;28;20224;-48
2022/03/10 00:22:50;;;;;;;11.93;8.73;;;7.60;92.90;;;;;;5049893;28;20204;-47
2022/03/10 00:25:19;;;;;;;9.45;7.80;;;7.70;92.80;;;;;;5057508;28;20213;-48
2022/03/10 00:27:47;;;;;;;11.35;7.90;;;7.60;92.80;;;;;;5069773;28;20218;-49
2022/03/10 00:30:18;;;;;;;10.63;8.20;;;7.60;92.70;;;;;;5064629;28;20307;-48
2022/03/10 00:32:49;;;;;;;10.27;9.25;;;7.60;92.60;;;;;;5050452;28;20218;-48
2022/03/10 00:35:20;;;;;;;10.45;8.00;;;7.60;92.90;;;;;;5065804;28;20226;-48
2022/03/10 00:37:57;;;;;;;9.25;7.13;;;7.60;93.10;;;;;;5052871;28;20682;-47
2022/03/10 00:40:26;;;;;;;11.05;9.35;;;7.60;93.10;;;;;;5070804;28;20220;-48
2022/03/10 00:42:54;;;;;;;11.63;8.57;;;7.60;93.10;;;;;;5073613;28;20254;-48
2022/03/10 00:45:23;;;;;;;7.72;6.85;;;7.60;93.10;;;;;;5054960;28;20252;-49
2022/03/10 00:47:52;;;;;;;10.30;7.80;;;7.60;93.20;;;;;;5060219;28;20188;-50
2022/03/10 00:50:23;;;;;;;9.02;7.47;;;7.60;93.70;;;;;;5053135;28;20253;-49
2022/03/10 00:52:51;;;;;;;10.30;8.15;;;7.60;93.20;;;;;;5059506;28;20212;-49
2022/03/10 00:55:20;;;;;;;8.93;7.75;;;7.60;93.20;;;;;;5072258;28;20237;-49
2022/03/10 00:57:49;;;;;;;8.85;7.63;;;7.60;93.20;;;;;;5072988;28;20215;-49
2022/03/10 01:00:18;;;;;;;9.25;7.47;;;7.60;93.20;;;;;;5062777;28;20233;-48
2022/03/10 01:02:47;;;;;;;8.02;5.50;;;7.60;93.40;;;;;;5068235;28;20682;-50
2022/03/10 01:05:15;;;;;;;9.75;7.18;;;7.60;93.60;;;;;;5070992;28;20304;-49
2022/03/10 01:07:44;;;;;;;7.45;6.35;;;7.60;93.70;;;;;;5067175;28;20233;-49
2022/03/10 01:10:14;;;;;;;8.00;6.85;;;7.60;93.80;;;;;;5072608;28;20222;-48
2022/03/10 01:12:45;;;;;;;9.95;6.40;;;7.60;93.90;;;;;;5072729;28;20621;-50
2022/03/10 01:15:15;;;;;;;8.30;6.75;;;7.60;93.90;;;;;;5064988;28;20208;-49
2022/03/10 01:17:44;;;;;;;8.70;6.53;;;7.60;94.10;;;;;;5072589;28;20752;-47
2022/03/10 01:20:16;;;;;;;8.20;6.55;;;7.60;94.10;;;;;;5071214;28;20215;-50
2022/03/10 01:22:46;;;;;;;8.13;6.55;;;7.60;94.10;;;;;;5054351;28;20304;-47
2022/03/10 01:25:17;;;;;;;10.52;7.60;;;7.60;94.10;;;;;;5071940;28;20564;-48
2022/03/10 01:27:46;;;;;;;8.20;7.05;;;7.60;94.10;;;;;;5071994;28;20801;-48
2022/03/10 01:30:14;;;;;;;9.35;7.57;;;7.60;94.10;;;;;;5053100;28;20224;-48
2022/03/10 01:32:44;;;;;;;9.63;6.80;;;7.60;94.10;;;;;;5071595;28;20242;-49
2022/03/10 01:35:13;;;;;;;10.25;6.78;;;7.60;94.20;;;;;;5064782;28;20777;-48
2022/03/10 01:37:41;;;;;;;11.85;7.50;;;7.60;94.00;;;;;;5071561;28;20203;-50
2022/03/10 01:40:14;;;;;;;7.95;6.82;;;7.60;94.10;;;;;;5052268;28;20270;-49
2022/03/10 01:42:42;;;;;;;8.82;7.13;;;7.60;94.20;;;;;;5062204;28;20212;-49
2022/03/10 01:45:11;;;;;;;9.75;7.95;;;7.60;94.00;;;;;;5070303;28;20270;-47
2022/03/10 01:47:40;;;;;;;8.25;7.35;;;7.60;93.80;;;;;;5071624;28;20613;-49
2022/03/10 01:50:10;;;;;;;9.63;8.32;;;7.60;94.20;;;;;;5071786;28;20246;-47
2022/03/10 01:52:40;;;;;;;11.57;8.45;;;7.60;94.00;;;;;;5060143;28;20215;-47
2022/03/10 01:55:08;;;;;;;8.30;7.47;;;7.50;93.90;;;;;;5071203;28;20219;-50
2022/03/10 01:57:38;;;;;;;9.60;7.60;;;7.50;94.00;;;;;;5071645;28;20257;-49
2022/03/10 02:00:08;;;;;;;8.57;7.15;;;7.60;94.00;;;;;;5067856;28;20638;-48
2022/03/10 02:02:36;;;;;;;10.80;7.90;;;7.60;94.10;;;;;;5050932;28;20227;-48
2022/03/10 02:05:06;;;;;;;10.18;6.82;;;7.60;94.10;;;;;;5071115;28;20639;-48
2022/03/10 02:10:21;;;;;;;9.20;6.95;;;7.50;94.10;;;;;;5071190;28;20211;-49
2022/03/10 02:12:52;;;;;;;10.30;7.18;;;7.60;94.10;;;;;;5071444;28;20250;-48
2022/03/10 02:18:09;;;;;;;7.20;6.50;;;7.50;94.00;;;;;;5060012;28;20298;-48
2022/03/10 02:20:38;;;;;;;8.38;6.88;;;7.60;94.30;;;;;;5067454;28;20258;-48
2022/03/10 02:23:10;;;;;;;8.98;6.60;;;7.50;94.20;;;;;;5059314;28;20611;-48
2022/03/10 02:25:39;;;;;;;10.20;8.10;;;7.60;94.30;;;;;;5070689;28;20215;-49
2022/03/10 02:28:07;;;;;;;9.30;7.30;;;7.50;94.20;;;;;;5052942;28;20187;-49
2022/03/10 02:30:37;;;;;;;8.55;6.78;;;7.60;94.20;;;;;;5069880;28;20238;-47
2022/03/10 02:33:05;;;;;;;8.43;7.15;;;7.50;94.20;;;;;;5070713;28;20687;-49
2022/03/10 02:35:34;;;;;;;10.73;7.25;;;7.50;94.30;;;;;;5067209;28;20231;-47
2022/03/10 02:38:03;;;;;;;8.02;6.68;;;7.50;94.20;;;;;;5068825;28;20300;-50
2022/03/10 02:40:32;;;;;;;9.80;7.25;;;7.50;94.10;;;;;;5070763;28;20254;-48
2022/03/10 02:43:00;;;;;;;8.68;6.78;;;7.50;94.40;;;;;;5070581;28;20219;-52
2022/03/10 02:45:28;;;;;;;8.63;7.40;;;7.50;94.30;;;;;;5062604;28;20247;-48
2022/03/10 02:47:56;;;;;;;10.35;7.25;;;7.50;94.30;;;;;;5051252;28;20223;-48
2022/03/10 02:50:24;;;;;;;10.02;7.50;;;7.50;94.30;;;;;;5056290;28;20548;-48
2022/03/10 02:52:52;;;;;;;8.73;7.03;;;7.50;94.40;;;;;;5053220;28;20706;-50
2022/03/10 02:55:21;;;;;;;7.72;5.90;;;7.50;94.30;;;;;;5069673;28;20262;-49
2022/03/10 02:57:51;;;;;;;7.95;6.35;;;7.50;94.40;;;;;;5070646;28;20234;-50
2022/03/10 03:00:19;;;;;;;8.77;6.10;;;7.50;94.40;;;;;;5065440;28;20250;-51
2022/03/10 03:02:47;;;;;;;7.88;7.03;;;7.50;94.40;;;;;;5070892;28;20276;-49
2022/03/10 03:05:15;;;;;;;10.05;7.28;;;7.50;94.40;;;;;;5068820;28;20560;-48
2022/03/10 03:07:44;;;;;;;8.90;7.00;;;7.50;94.50;;;;;;5050907;28;20220;-47
2022/03/10 03:10:12;;;;;;;10.20;6.93;;;7.50;94.40;;;;;;5064519;28;20232;-49
2022/03/10 03:12:44;;;;;;;8.20;6.35;;;7.50;94.50;;;;;;5070186;28;20729;-49
2022/03/10 03:15:14;;;;;;;6.85;6.15;;;7.50;94.40;;;;;;5068552;28;20625;-48
2022/03/10 03:17:47;;;;;;;8.13;7.20;;;7.50;94.40;;;;;;5070294;28;20622;-50
2022/03/10 03:20:16;;;;;;;11.45;7.13;;;7.50;94.60;;;;;;5069557;28;20216;-52
2022/03/10 03:22:44;;;;;;;12.05;7.10;;;7.50;94.40;;;;;;5057394;28;20219;-48
2022/03/10 03:25:14;;;;;;;9.05;6.90;;;7.50;94.30;;;;;;5069517;28;20235;-48
2022/03/10 03:27:46;;;;;;;8.18;7.32;;;7.50;94.50;;;;;;5070411;28;20186;-49
2022/03/10 03:30:17;;;;;;;11.00;8.32;;;7.40;94.20;;;;;;5068622;28;20258;-48
2022/03/10 03:32:46;;;;;;;8.65;6.75;;;7.50;94.20;;;;;;5070390;28;20227;-48
2022/03/10 03:35:15;;;;;;;8.55;6.70;;;7.50;94.60;;;;;;5069055;28;20251;-49
2022/03/10 03:37:43;;;;;;;8.63;6.97;;;7.50;94.50;;;;;;5069790;28;20556;-47
2022/03/10 03:40:12;;;;;;;9.02;7.43;;;7.50;94.60;;;;;;5069878;28;20253;-49
2022/03/10 03:42:40;;;;;;;10.38;6.50;;;7.50;94.60;;;;;;5070471;28;20204;-48
2022/03/10 03:45:10;;;;;;;8.27;6.70;;;7.40;94.60;;;;;;5065126;28;20306;-49
2022/03/10 03:47:40;;;;;;;8.73;6.80;;;7.40;94.60;;;;;;5054404;28;20211;-49
2022/03/10 03:50:12;;;;;;;10.10;8.18;;;7.40;94.50;;;;;;5069975;28;20215;-49
2022/03/10 03:52:41;;;;;;;8.70;6.93;;;7.40;94.00;;;;;;5053837;28;20717;-50
2022/03/10 03:55:12;;;;;;;8.13;6.15;;;7.40;94.50;;;;;;5069446;28;20360;-47
2022/03/10 03:57:40;;;;;;;9.25;7.15;;;7.40;94.50;;;;;;5069436;28;20200;-48
2022/03/10 04:00:11;;;;;;;7.85;6.78;;;7.40;94.60;;;;;;5054422;28;20779;-50
2022/03/10 04:02:40;;;;;;;7.97;6.00;;;7.40;94.70;;;;;;5062177;28;20302;-49
2022/03/10 04:05:12;;;;;;;8.82;6.68;;;7.40;94.70;;;;;;5069160;28;20273;-49
2022/03/10 04:07:40;;;;;;;9.38;7.05;;;7.40;94.80;;;;;;5063275;28;20604;-48
2022/03/10 04:10:09;;;;;;;10.90;7.68;;;7.40;94.70;;;;;;5069586;28;20321;-50
2022/03/10 04:12:37;;;;;;;8.75;7.32;;;7.40;94.70;;;;;;5073044;28;20220;-49
2022/03/10 04:15:06;;;;;;;7.90;6.80;;;7.40;94.80;;;;;;5070169;28;20222;-49
2022/03/10 04:17:34;;;;;;;7.50;6.00;;;7.40;94.80;;;;;;5054146;28;20235;-48
2022/03/10 04:20:08;;;;;;;6.93;6.22;;;7.40;94.80;;;;;;5055675;28;20227;-49
2022/03/10 04:22:36;;;;;;;8.73;6.35;;;7.40;94.90;;;;;;5054003;28;20270;-49
2022/03/10 04:25:06;;;;;;;9.27;6.88;;;7.40;94.90;;;;;;5065014;28;20315;-50
2022/03/10 04:27:34;;;;;;;8.48;6.88;;;7.40;95.00;;;;;;5073682;28;20255;-48
2022/03/10 04:30:03;;;;;;;9.98;6.22;;;7.40;95.10;;;;;;5064074;28;20295;-48
2022/03/10 04:32:40;;;;;;;10.63;6.95;;;7.40;95.00;;;;;;5062086;28;20649;-46
2022/03/10 04:35:10;;;;;;;8.93;7.13;;;7.40;94.80;;;;;;5072920;28;20243;-49
2022/03/10 04:37:38;;;;;;;8.93;7.10;;;7.40;94.70;;;;;;5061410;28;20207;-48
2022/03/10 04:40:08;;;;;;;8.38;6.85;;;7.40;94.90;;;;;;5073071;28;20311;-49
2022/03/10 04:42:37;;;;;;;8.05;6.82;;;7.30;94.90;;;;;;5073299;28;20215;-49
2022/03/10 04:45:07;;;;;;;8.13;6.63;;;7.40;94.80;;;;;;5065975;28;20235;-48
2022/03/10 04:47:36;;;;;;;9.77;6.32;;;7.40;94.90;;;;;;5060443;28;20588;-51
2022/03/10 04:50:05;;;;;;;7.57;6.75;;;7.40;95.00;;;;;;5073053;28;20226;-48
2022/03/10 04:52:34;;;;;;;7.90;6.50;;;7.40;95.10;;;;;;5070080;28;20239;-50
2022/03/10 04:55:02;;;;;;;7.70;6.18;;;7.30;95.10;;;;;;5071264;28;20302;-47
2022/03/10 04:57:30;;;;;;;8.23;6.03;;;7.30;95.20;;;;;;5073368;28;20234;-48
2022/03/10 04:59:58;;;;;;;7.15;6.13;;;7.30;95.20;;;;;;5068743;28;20270;-48
2022/03/10 05:02:27;;;;;;;6.63;5.68;;;7.30;95.20;;;;;;5073314;28;20212;-48
2022/03/10 05:04:56;;;;;;;6.80;6.18;;;7.40;95.30;;;;;;5071702;28;20211;-48
2022/03/10 05:07:24;;;;;;;7.28;6.22;;;7.30;95.30;;;;;;5061466;28;20220;-47
2022/03/10 05:09:53;;;;;;;8.93;5.82;;;7.30;95.20;;;;;;5072707;28;20259;-47
2022/03/10 05:12:21;;;;;;;8.07;6.85;;;7.30;95.30;;;;;;5072909;28;20296;-47
2022/03/10 05:14:49;;;;;;;7.80;5.85;;;7.30;95.40;;;;;;5051530;28;20299;-49
2022/03/10 05:17:17;;;;;;;7.80;5.75;;;7.30;95.40;;;;;;5052629;28;20315;-47
2022/03/10 05:19:46;;;;;;;6.53;5.82;;;7.30;95.40;;;;;;5052199;28;20224;-49
2022/03/10 05:22:14;;;;;;;7.00;5.45;;;7.30;95.40;;;;;;5052364;28;20240;-50
2022/03/10 05:24:42;;;;;;;7.10;5.88;;;7.30;95.30;;;;;;5052108;28;20700;-50
2022/03/10 05:27:12;;;;;;;6.03;5.32;;;7.30;95.40;;;;;;5052819;28;20191;-50
2022/03/10 05:29:40;;;;;;;9.55;6.03;;;7.30;95.40;;;;;;5059053;28;20249;-48
2022/03/10 05:32:10;;;;;;;8.50;6.25;;;7.30;95.50;;;;;;5072367;28;20215;-49
2022/03/10 05:34:39;;;;;;;8.18;5.72;;;7.30;95.40;;;;;;5072017;28;20786;-47
2022/03/10 05:37:07;;;;;;;9.82;7.75;;;7.30;95.40;;;;;;5056442;28;20196;-48
2022/03/10 05:39:35;;;;;;;8.23;6.57;;;7.20;95.40;;;;;;5069155;28;20637;-47
2022/03/10 05:42:04;;;;;;;6.95;6.25;;;7.30;95.50;;;;;;5072160;28;20614;-47
2022/03/10 05:44:33;;;;;;;7.05;5.53;;;7.30;95.50;;;;;;5066286;28;20648;-48
2022/03/10 05:47:01;;;;;;;5.93;5.43;;;7.30;95.60;;;;;;5065011;28;20200;-48
2022/03/10 05:49:30;;;;;;;7.63;5.95;;;7.30;95.60;;;;;;5071481;28;20219;-49
2022/03/10 05:51:58;;;;;;;7.15;5.70;;;7.30;95.60;;;;;;5057141;28;20208;-47
2022/03/10 05:54:26;;;;;;;8.45;7.18;;;7.20;95.60;;;;;;5058970;28;20306;-50
2022/03/10 05:56:54;;;;;;;7.63;6.50;;;7.20;95.50;;;;;;5071254;28;20184;-47
2022/03/10 05:59:22;;;;;;;7.10;6.20;;;7.30;95.60;;;;;;5070826;28;20223;-48
2022/03/10 06:01:51;;;;;;;11.95;7.05;;;7.20;95.60;;;;;;5054121;28;20782;-48
2022/03/10 06:04:19;;;;;;;6.10;5.40;;;7.20;95.50;;;;;;5067558;28;20243;-48
2022/03/10 06:06:49;;;;;;;6.57;5.97;;;7.20;95.50;;;;;;5058769;28;20541;-49
2022/03/10 06:09:17;;;;;;;11.48;7.97;;;7.20;95.30;;;;;;5067481;28;20281;-50
2022/03/10 06:11:45;;;;;;;8.75;7.00;;;7.20;94.90;;;;;;5055222;28;20216;-49
2022/03/10 06:14:13;;;;;;;9.90;7.72;;;7.20;95.20;;;;;;5071161;28;20223;-50
2022/03/10 06:16:41;;;;;;;9.30;7.00;;;7.20;95.10;;;;;;5056249;28;20284;-51
2022/03/10 06:19:11;;;;;;;10.80;7.82;;;7.20;95.10;;;;;;5071880;28;20306;-47
2022/03/10 06:21:39;;;;;;;7.65;5.78;;;7.20;95.30;;;;;;5062449;28;20216;-47
2022/03/10 06:24:08;;;;;;;11.10;7.75;;;7.20;95.30;;;;;;5070193;28;20235;-47
2022/03/10 06:26:37;;;;;;;10.52;7.95;;;7.10;95.20;;;;;;5070890;28;20643;-49
2022/03/10 06:29:05;;;;;;;8.70;6.85;;;7.10;94.90;;;;;;5064653;28;20238;-48
2022/03/10 06:31:34;;;;;;;7.93;6.70;;;7.10;95.00;;;;;;5062967;28;20211;-47
2022/03/10 06:34:03;;;;;;;9.07;6.80;;;7.10;95.30;;;;;;5069297;28;20278;-47
2022/03/10 06:36:32;;;;;;;8.05;6.97;;;7.10;95.40;;;;;;5059395;28;20663;-48
2022/03/10 06:39:00;;;;;;;9.95;7.90;;;7.10;95.20;;;;;;5059637;28;20300;-47
2022/03/10 06:41:28;;;;;;;11.23;8.50;;;7.10;95.20;;;;;;5071239;28;20679;-50
2022/03/10 06:43:56;;;;;;;10.73;7.55;;;7.10;95.20;;;;;;5065311;28;20195;-50
2022/03/10 06:46:25;;;;;;;14.27;7.72;;;7.10;95.10;;;;;;5050989;28;20204;-49
2022/03/10 06:48:53;;;;;;;8.10;7.30;;;7.10;95.00;;;;;;5067933;28;20190;-50
2022/03/10 06:51:21;;;;;;;9.90;7.32;;;7.10;95.20;;;;;;5061157;28;20212;-48
2022/03/10 06:53:50;;;;;;;9.38;7.07;;;7.10;95.20;;;;;;5067105;28;20191;-47
2022/03/10 06:56:25;;;;;;;9.05;7.35;;;7.10;95.00;;;;;;5070911;28;20199;-48
2022/03/10 06:58:53;;;;;;;11.25;8.48;;;7.10;94.90;;;;;;5070256;28;20215;-49
2022/03/10 07:01:21;;;;;;;9.85;7.90;;;7.10;95.00;;;;;;5070251;28;20532;-48
2022/03/10 07:03:51;;;;;;;10.50;7.18;;;7.00;94.80;;;;;;5070538;28;20196;-48
2022/03/10 07:06:20;;;;;;;9.85;7.55;;;7.00;94.90;;;;;;5067744;28;20675;-50
2022/03/10 07:08:50;;;;;;;11.27;8.23;;;7.00;95.00;;;;;;5070478;28;20233;-49
2022/03/10 07:11:19;;;;;;;10.18;8.27;;;7.00;95.10;;;;;;5070318;28;20594;-48
2022/03/10 07:13:47;;;;;;;11.57;6.82;;;7.00;95.00;;;;;;5070191;28;20214;-48
2022/03/10 07:16:15;;;;;;;8.23;6.82;;;7.00;95.40;;;;;;5056078;28;20208;-50
2022/03/10 07:18:50;;;;;;;9.38;6.97;;;7.00;95.10;;;;;;5054748;28;20215;-48
2022/03/10 07:21:18;;;;;;;11.27;8.00;;;7.00;95.10;;;;;;5061235;28;20229;-49
2022/03/10 07:23:47;;;;;;;10.57;8.27;;;7.00;95.00;;;;;;5055223;28;20199;-50
2022/03/10 07:26:16;;;;;;;9.35;6.75;;;7.00;95.00;;;;;;5065780;28;20582;-49
2022/03/10 07:28:45;;;;;;;12.70;8.63;;;7.00;95.00;;;;;;5070681;28;20192;-48
2022/03/10 07:31:13;;;;;;;10.80;8.20;;;7.00;94.80;;;;;;5056432;28;20218;-51
2022/03/10 07:33:41;;;;;;;8.82;7.43;;;7.00;95.00;;;;;;5070468;28;20196;-47
2022/03/10 07:36:09;;;;;;;10.80;8.38;;;7.00;94.80;;;;;;5067617;28;20218;-49
2022/03/10 07:38:37;;;;;;;9.30;7.63;;;7.00;94.70;;;;;;5069187;28;20270;-47
2022/03/10 07:41:05;;;;;;;14.75;9.38;;;7.00;94.70;;;;;;5069580;28;20245;-49
2022/03/10 07:43:35;;;;;;;10.98;7.95;;;7.00;94.40;;;;;;5068352;28;20282;-48
2022/03/10 07:46:04;;;;;;;9.57;7.90;;;7.00;94.60;;;;;;5091969;28;20234;-51
2022/03/10 07:48:32;;;;;;;11.32;8.27;;;7.10;94.80;;;;;;5077477;28;20222;-50
2022/03/10 07:51:02;;;;;;;7.30;5.53;;;7.10;94.80;;;;;;5048689;28;20703;-50
2022/03/10 07:53:30;;;;;;;7.85;6.53;;;7.10;94.90;;;;;;5069257;28;21612;-48
2022/03/10 07:55:59;;;;;;;7.80;6.00;;;7.10;95.20;;;;;;5071592;28;20290;-49
2022/03/10 07:58:27;;;;;;;8.32;5.90;;;7.10;95.30;;;;;;5072193;28;20188;-48
2022/03/10 08:00:57;;;;;;;9.63;7.35;;;7.10;95.40;;;;;;5073477;28;20221;-47
2022/03/10 08:03:26;;;;;;;8.70;6.47;;;7.10;95.40;;;;;;5055737;28;20206;-48
2022/03/10 08:05:54;;;;;;;8.55;5.78;;;7.10;95.40;;;;;;5070476;28;20215;-48
2022/03/10 08:08:23;;;;;;;8.35;6.22;;;7.10;95.80;;;;;;5072769;28;20241;-48
2022/03/10 08:10:51;;;;;;;7.30;6.05;;;7.10;95.50;;;;;;5073221;28;20315;-48
2022/03/10 08:13:24;;;;;;;9.40;6.38;;;7.20;95.50;;;;;;5072327;28;20218;-48
2022/03/10 08:15:53;;;;;;;5.75;5.00;;;7.20;95.60;;;;;;5072297;28;20303;-48
2022/03/10 08:18:23;;;;;;;6.72;6.03;;;7.20;95.50;;;;;;5073151;28;20233;-48
2022/03/10 08:20:51;;;;;;;8.48;6.13;;;7.20;95.40;;;;;;5066525;28;20667;-48
2022/03/10 08:23:20;;;;;;;7.70;6.82;;;7.20;95.40;;;;;;5068191;28;20205;-48
2022/03/10 08:25:48;;;;;;;8.63;7.10;;;7.20;95.40;;;;;;5070227;28;20222;-50
2022/03/10 08:28:16;;;;;;;9.38;6.85;;;7.20;95.40;;;;;;5071455;28;20603;-48
2022/03/10 08:30:44;;;;;;;9.27;6.53;;;7.20;95.50;;;;;;5072591;28;20216;-48
2022/03/10 08:33:15;;;;;;;7.68;6.03;;;7.20;95.40;;;;;;5073060;28;20208;-49
2022/03/10 08:35:45;;;;;;;8.20;6.20;;;7.20;95.40;;;;;;5070402;28;20243;-49
2022/03/10 08:38:16;;;;;;;9.27;6.43;;;7.20;95.40;;;;;;5073077;28;20525;-49
2022/03/10 08:40:45;;;;;;;9.10;7.10;;;7.20;95.40;;;;;;5072625;28;20289;-49
2022/03/10 08:43:13;;;;;;;7.47;6.40;;;7.20;95.30;;;;;;5071484;28;20207;-47
2022/03/10 08:45:41;;;;;;;9.68;6.80;;;7.20;95.40;;;;;;5065853;28;20576;-49
2022/03/10 08:48:10;;;;;;;8.32;6.50;;;7.20;95.30;;;;;;5071600;28;20234;-48
2022/03/10 08:50:39;;;;;;;12.10;6.90;;;7.30;95.90;;;;;;5064914;28;20238;-48
2022/03/10 08:53:08;;;;;;;9.10;6.25;;;7.30;95.40;;;;;;5056798;28;20759;-47
2022/03/10 08:55:36;;;;;;;9.13;7.25;;;7.20;95.40;;;;;;5072680;28;20762;-49
2022/03/10 08:58:05;;;;;;;12.02;7.60;;;7.30;95.30;;;;;;5071688;28;20199;-50
2022/03/10 09:00:33;;;;;;;8.88;7.15;;;7.30;95.30;;;;;;5062881;28;20250;-49
2022/03/10 09:03:02;;;;;;;9.00;6.90;;;7.30;95.40;;;;;;5065202;28;20702;-48
2022/03/10 09:05:34;;;;;;;9.52;7.85;;;7.30;95.40;;;;;;5050463;28;20223;-49
2022/03/10 09:08:02;;;;;;;10.30;7.63;;;7.30;95.40;;;;;;5052166;28;20245;-48
2022/03/10 09:10:32;;;;;;;8.75;7.25;;;7.30;95.30;;;;;;5071369;28;20319;-48
2022/03/10 09:13:00;;;;;;;8.52;6.53;;;7.30;95.40;;;;;;5072370;28;20739;-49
2022/03/10 09:15:28;;;;;;;8.57;7.35;;;7.30;95.30;;;;;;5071595;28;20255;-47
2022/03/10 09:17:57;;;;;;;9.25;6.75;;;7.30;95.30;;;;;;5070485;28;20708;-48
2022/03/10 09:20:25;;;;;;;9.82;7.78;;;7.30;95.20;;;;;;5070684;28;20240;-49
2022/03/10 09:22:53;;;;;;;8.77;6.30;;;7.30;95.30;;;;;;5070937;28;20212;-47
2022/03/10 09:25:21;;;;;;;7.90;6.68;;;7.30;95.20;;;;;;5071235;28;20258;-49
2022/03/10 09:27:51;;;;;;;8.93;6.47;;;7.30;95.30;;;;;;5055637;28;20193;-49
2022/03/10 09:30:19;;;;;;;9.10;7.05;;;7.30;95.30;;;;;;5065946;28;20232;-48
2022/03/10 09:32:48;;;;;;;9.63;7.85;;;7.30;95.30;;;;;;5057117;28;20302;-49
2022/03/10 09:35:17;;;;;;;10.68;7.35;;;7.30;95.20;;;;;;5070390;28;20243;-49
2022/03/10 09:37:49;;;;;;;9.55;7.10;;;7.30;95.30;;;;;;5058294;28;20287;-47
2022/03/10 09:40:17;;;;;;;8.05;6.45;;;7.30;95.20;;;;;;5070095;28;20223;-47
2022/03/10 09:42:48;;;;;;;10.65;7.30;;;7.30;95.30;;;;;;5071585;28;20621;-47
2022/03/10 09:45:19;;;;;;;7.28;6.53;;;7.40;95.20;;;;;;5068835;28;20250;-50
2022/03/10 09:47:48;;;;;;;8.18;7.13;;;7.30;95.30;;;;;;5072122;28;20199;-48
2022/03/10 09:50:18;;;;;;;8.95;7.35;;;7.40;95.30;;;;;;5070056;28;20254;-48
2022/03/10 09:52:48;;;;;;;6.82;6.13;;;7.40;95.30;;;;;;5066477;28;20223;-48
2022/03/10 09:55:18;;;;;;;9.95;7.30;;;7.30;95.20;;;;;;5070044;28;20226;-48
2022/03/10 09:57:49;;;;;;;10.85;7.57;;;7.30;95.30;;;;;;5072406;28;20223;-48
2022/03/10 10:00:19;;;;;;;8.82;7.45;;;7.30;95.30;;;;;;5069798;28;20233;-49
2022/03/10 10:02:47;;;;;;;7.43;6.10;;;7.40;95.40;;;;;;5064907;28;20255;-47
2022/03/10 10:05:23;;;;;;;7.20;5.82;;;7.40;95.40;;;;;;5057502;28;20767;-49
2022/03/10 10:08:06;;;;;;;7.47;5.72;;;7.40;95.40;;;;;;5051516;28;20204;-48
2022/03/10 10:10:35;;;;;;;8.73;6.60;;;7.40;95.50;;;;;;5058997;28;20625;-50
2022/03/10 10:13:25;;;;;;;8.68;6.75;;;7.40;95.50;;;;;;5070049;28;20222;-50
2022/03/10 10:15:57;;;;;;;9.63;7.10;;;7.40;95.50;;;;;;5050807;28;20227;-47
2022/03/10 10:18:26;;;;;;;8.35;6.70;;;7.30;95.50;;;;;;5057715;28;20291;-50
2022/03/10 10:21:18;;;;;;;8.65;6.40;;;7.40;95.50;;;;;;5061477;28;20225;-48
2022/03/10 10:23:48;;;;;;;9.55;6.97;;;7.40;95.50;;;;;;5051113;28;20200;-49
2022/03/10 10:26:16;;;;;;;7.50;6.13;;;7.30;95.50;;;;;;5068263;28;20215;-50
2022/03/10 10:28:48;;;;;;;8.63;6.70;;;7.40;95.50;;;;;;5056572;28;20656;-49
2022/03/10 10:31:19;;;;;;;9.13;7.50;;;7.40;95.50;;;;;;5053774;28;20239;-48
2022/03/10 10:34:00;;;;;;;9.32;6.45;;;7.40;95.50;;;;;;5055747;28;20191;-48
2022/03/10 10:36:30;;;;;;;11.48;7.07;;;7.30;96.00;;;;;;5070204;28;20655;-47
2022/03/10 10:39:07;;;;;;;8.95;6.47;;;7.30;95.60;;;;;;5070003;28;20210;-47
2022/03/10 10:41:35;;;;;;;6.82;6.13;;;7.30;95.60;;;;;;5071241;28;20217;-50
2022/03/10 10:44:05;;;;;;;8.70;6.22;;;7.40;95.60;;;;;;5067351;28;20203;-51
2022/03/10 10:46:37;;;;;;;7.85;6.97;;;7.40;95.60;;;;;;5050889;28;20291;-50
2022/03/10 10:49:07;;;;;;;9.15;7.20;;;7.40;95.60;;;;;;5066796;28;20282;-49
2022/03/10 10:51:38;;;;;;;9.00;7.60;;;7.40;95.70;;;;;;5064768;28;20239;-48
2022/03/10 10:54:08;;;;;;;9.13;6.65;;;7.40;95.70;;;;;;5070007;28;20639;-47
2022/03/10 10:56:46;;;;;;;7.63;6.20;;;7.40;95.70;;;;;;5067494;28;20287;-48
2022/03/10 10:59:30;;;;;;;9.15;7.35;;;7.40;95.80;;;;;;5058414;28;20227;-48
2022/03/10 11:02:12;;;;;;;13.20;8.13;;;7.40;95.80;;;;;;5057865;28;20227;-48
2022/03/10 11:04:41;;;;;;;9.35;7.20;;;7.30;95.70;;;;;;5066989;28;20242;-48
2022/03/10 11:07:11;;;;;;;9.32;6.30;;;7.40;95.70;;;;;;5054023;28;20215;-50
2022/03/10 11:09:40;;;;;;;9.40;7.68;;;7.40;95.80;;;;;;5056383;28;20249;-48
2022/03/10 11:12:10;;;;;;;9.13;6.68;;;7.40;95.80;;;;;;5070475;28;20266;-47
2022/03/10 11:14:38;;;;;;;7.63;6.05;;;7.40;95.90;;;;;;5067047;28;20299;-48
2022/03/10 11:17:09;;;;;;;8.75;6.60;;;7.40;95.90;;;;;;5070049;28;20199;-49
2022/03/10 11:19:39;;;;;;;8.70;6.25;;;7.40;95.90;;;;;;5069428;28;20641;-48
2022/03/10 11:22:28;;;;;;;9.95;6.38;;;7.40;96.00;;;;;;5058858;28;20691;-48
2022/03/10 11:25:10;;;;;;;8.15;6.47;;;7.40;96.00;;;;;;5069950;28;20216;-48
2022/03/10 11:27:43;;;;;;;10.27;6.45;;;7.40;96.00;;;;;;5069706;28;20725;-48
2022/03/10 11:30:12;;;;;;;7.53;5.97;;;7.40;96.00;;;;;;5066080;28;20272;-50
2022/03/10 11:32:41;;;;;;;10.77;7.55;;;7.40;96.10;;;;;;5068351;28;20281;-48
2022/03/10 11:35:17;;;;;;;7.80;7.00;;;7.40;96.10;;;;;;5066487;28;20245;-47
2022/03/10 11:37:52;;;;;;;10.68;6.60;;;7.40;96.10;;;;;;5068855;28;20199;-48
2022/03/10 11:40:43;;;;;;;9.80;6.90;;;7.40;96.20;;;;;;5063130;28;20216;-50
2022/03/10 11:43:12;;;;;;;9.90;7.32;;;7.40;96.20;;;;;;5050458;28;20698;-49
2022/03/10 11:45:40;;;;;;;8.40;6.38;;;7.40;96.30;;;;;;5048905;28;20224;-48
2022/03/10 11:48:36;;;;;;;8.45;6.25;;;7.40;96.20;;;;;;5050603;28;20193;-47
2022/03/10 11:51:19;;;;;;;10.10;6.25;;;7.40;96.20;;;;;;5052964;28;20513;-49
2022/03/10 11:54:18;;;;;;;12.95;6.97;;;7.40;96.30;;;;;;5049221;28;20230;-49
2022/03/10 11:57:05;;;;;;;8.38;7.47;;;7.40;96.30;;;;;;5005991;28;20212;-46
2022/03/10 11:59:49;;;;;;;8.88;7.07;;;7.40;96.30;;;;;;5055568;28;20212;-48
2022/03/10 12:02:43;;;;;;;9.10;6.78;;;7.40;96.30;;;;;;5063523;28;20227;-49
2022/03/10 12:05:16;;;;;;;9.43;6.95;;;7.40;96.30;;;;;;5049926;28;20699;-50
2022/03/10 12:07:51;;;;;;;9.30;6.10;;;7.40;96.40;;;;;;5067742;28;20196;-49
2022/03/10 12:10:19;;;;;;;8.90;6.30;;;7.40;96.40;;;;;;5068003;28;20218;-49
2022/03/10 12:12:48;;;;;;;7.88;6.75;;;7.40;96.30;;;;;;5066758;28;20222;-47
2022/03/10 12:15:49;;;;;;;8.82;6.75;;;7.40;96.30;;;;;;5062172;28;20219;-49
2022/03/10 12:18:32;;;;;;;9.10;7.60;;;7.40;96.30;;;;;;5061969;28;20661;-48
2022/03/10 12:21:17;;;;;;;9.98;6.53;;;7.50;96.40;;;;;;5054186;28;20212;-49
2022/03/10 12:23:54;;;;;;;8.13;6.03;;;7.40;96.30;;;;;;5069369;28;20263;-49
2022/03/10 12:26:26;;;;;;;7.47;6.40;;;7.50;96.40;;;;;;5067489;28;20284;-48
2022/03/10 12:28:56;;;;;;;8.45;6.80;;;7.50;96.50;;;;;;5068205;28;20199;-48
2022/03/10 12:31:27;;;;;;;8.85;6.75;;;7.50;96.40;;;;;;5064541;28;20765;-50
2022/03/10 12:33:58;;;;;;;8.50;6.78;;;7.50;96.50;;;;;;5071632;28;20648;-47
2022/03/10 12:36:30;;;;;;;10.73;6.15;;;7.50;96.30;;;;;;5063617;28;20564;-47
2022/03/10 12:39:00;;;;;;;8.13;6.80;;;7.50;96.40;;;;;;5071273;28;20196;-49
2022/03/10 12:41:31;;;;;;;8.73;7.82;;;7.50;96.40;;;;;;5053534;28;20230;-47
2022/03/10 12:44:03;;;;;;;10.95;8.07;;;7.50;96.30;;;;;;5070564;28;20752;-49
2022/03/10 12:46:32;;;;;;;8.35;6.72;;;7.50;96.50;;;;;;5058798;28;20648;-48
2022/03/10 12:49:08;;;;;;;8.77;6.55;;;7.50;96.50;;;;;;5059660;28;20184;-48
2022/03/10 12:51:39;;;;;;;8.32;7.22;;;7.50;96.50;;;;;;5061928;28;20217;-49
2022/03/10 12:54:09;;;;;;;8.85;7.18;;;7.50;96.50;;;;;;5059883;28;20207;-49
2022/03/10 12:56:44;;;;;;;9.02;6.55;;;7.50;96.50;;;;;;5072423;28;20195;-47
2022/03/10 12:59:13;;;;;;;8.73;7.22;;;7.50;96.50;;;;;;5072109;28;20221;-47
2022/03/10 13:01:41;;;;;;;8.85;7.32;;;7.50;96.40;;;;;;5055919;28;20212;-49
2022/03/10 13:04:14;;;;;;;11.10;7.65;;;7.60;96.50;;;;;;5071629;28;20307;-48
2022/03/10 13:06:44;;;;;;;8.57;6.78;;;7.60;96.50;;;;;;5060533;28;20211;-47
2022/03/10 13:09:13;;;;;;;9.15;6.40;;;7.60;96.40;;;;;;5052594;28;20234;-49
2022/03/10 13:11:41;;;;;;;13.80;7.50;;;7.60;96.40;;;;;;5072454;28;20277;-50
2022/03/10 13:14:14;;;;;;;10.95;7.68;;;7.60;96.30;;;;;;5072171;28;20582;-48
2022/03/10 13:16:45;;;;;;;9.00;6.50;;;7.60;96.40;;;;;;5060112;28;20610;-47